createdAt,value
2018-10-03T00:01:47.588Z,67.71
2018-10-03T00:04:16.522Z,67.57
2018-10-03T00:06:45.367Z,67.75
2018-10-03T00:09:14.272Z,67.61
2018-10-03T00:11:43.388Z,67.64
2018-10-03T00:14:12.690Z,67.45
2018-10-03T00:16:42.001Z,67.27
2018-10-03T00:19:10.841Z,67.55
2018-10-03T00:21:39.748Z,66.59
2018-10-03T00:24:08.558Z,66.59
2018-10-03T00:26:38.508Z,66.44
2018-10-03T00:29:07.376Z,66.01
2018-10-03T00:31:36.208Z,65.74
2018-10-03T00:34:05.376Z,65.30
2018-10-03T00:36:34.414Z,65.20
2018-10-03T00:39:03.351Z,64.82
2018-10-03T00:41:32.149Z,64.58
2018-10-03T00:44:01.048Z,63.42
2018-10-03T00:46:29.819Z,63.26
2018-10-03T00:48:58.731Z,63.43
2018-10-03T00:51:27.663Z,62.79
2018-10-03T00:53:56.582Z,61.88
2018-10-03T00:56:25.338Z,62.21
2018-10-03T00:58:54.207Z,61.72
2018-10-03T01:01:22.929Z,60.75
2018-10-03T01:03:51.856Z,61.34
2018-10-03T01:06:20.701Z,60.45
2018-10-03T01:08:49.559Z,58.63
2018-10-03T01:11:18.402Z,56.84
2018-10-03T01:13:47.435Z,56.40
2018-10-03T01:16:16.246Z,56.35
2018-10-03T01:18:45.150Z,55.48
2018-10-03T01:21:14.654Z,55.52
2018-10-03T01:23:43.593Z,55.50
2018-10-03T01:26:12.724Z,55.05
2018-10-03T01:28:41.589Z,54.44
2018-10-03T01:31:10.504Z,53.95
2018-10-03T01:33:39.359Z,54.24
2018-10-03T01:36:08.303Z,55.19
2018-10-03T01:38:37.155Z,54.98
2018-10-03T01:41:06.206Z,56.31
2018-10-03T01:43:34.969Z,56.36
2018-10-03T01:46:03.811Z,56.84
2018-10-03T01:48:32.921Z,57.10
2018-10-03T01:51:01.852Z,57.05
2018-10-03T01:53:30.574Z,56.88
2018-10-03T01:55:59.475Z,57.14
2018-10-03T01:58:28.269Z,57.54
2018-10-03T02:00:57.067Z,56.98
2018-10-03T02:03:26.385Z,57.03
2018-10-03T02:05:55.235Z,57.54
2018-10-03T02:08:24.053Z,57.84
2018-10-03T02:10:52.896Z,58.20
2018-10-03T02:13:21.783Z,58.37
2018-10-03T02:15:50.602Z,57.56
2018-10-03T02:18:19.482Z,57.54
2018-10-03T02:20:48.391Z,57.36
2018-10-03T02:23:17.263Z,57.02
2018-10-03T02:25:46.194Z,57.09
2018-10-03T02:28:15.308Z,56.97
2018-10-03T02:30:44.280Z,57.45
2018-10-03T02:33:13.059Z,56.52
2018-10-03T02:35:41.894Z,56.92
2018-10-03T02:38:10.691Z,57.05
2018-10-03T02:40:39.891Z,56.91
2018-10-03T02:43:08.802Z,56.97
2018-10-03T02:45:37.582Z,57.15
2018-10-03T02:48:06.495Z,56.43
2018-10-03T02:50:35.322Z,56.85
2018-10-03T02:53:04.180Z,55.86
2018-10-03T02:55:32.947Z,55.25
2018-10-03T02:58:01.782Z,55.06
2018-10-03T03:00:30.567Z,54.77
2018-10-03T03:02:59.392Z,55.12
2018-10-03T03:05:28.253Z,55.45
2018-10-03T03:07:57.052Z,55.62
2018-10-03T03:10:25.876Z,55.42
2018-10-03T03:12:54.714Z,55.94
2018-10-03T03:15:23.572Z,55.39
2018-10-03T03:17:52.356Z,55.84
2018-10-03T03:20:21.245Z,55.65
2018-10-03T03:22:50.491Z,54.99
2018-10-03T03:25:19.344Z,55.16
2018-10-03T03:27:48.256Z,55.13
2018-10-03T03:30:17.122Z,55.26
2018-10-03T03:32:45.936Z,54.84
2018-10-03T03:35:15.233Z,54.97
2018-10-03T03:37:44.087Z,55.34
2018-10-03T03:40:13.038Z,55.25
2018-10-03T03:42:41.826Z,55.28
2018-10-03T03:45:10.697Z,55.64
2018-10-03T03:47:39.575Z,56.39
2018-10-03T03:50:08.323Z,56.40
2018-10-03T03:52:37.431Z,56.93
2018-10-03T03:55:06.716Z,57.33
2018-10-03T03:57:35.499Z,58.29
2018-10-03T04:00:04.328Z,58.48
2018-10-03T04:02:33.255Z,58.66
2018-10-03T04:05:02.046Z,58.95
2018-10-03T04:07:30.890Z,59.46
2018-10-03T04:09:59.729Z,59.61
2018-10-03T04:12:28.578Z,59.81
2018-10-03T04:14:57.616Z,60.06
2018-10-03T04:17:26.800Z,59.98
2018-10-03T04:19:55.837Z,59.64
2018-10-03T04:22:26.756Z,60.09
2018-10-03T04:24:55.655Z,60.13
2018-10-03T04:27:24.546Z,60.06
2018-10-03T04:29:54.194Z,59.70
2018-10-03T04:32:23.036Z,59.53
2018-10-03T04:34:51.874Z,59.64
2018-10-03T04:37:20.813Z,59.81
2018-10-03T04:39:49.646Z,59.27
2018-10-03T04:42:18.529Z,58.95
2018-10-03T04:44:47.368Z,59.03
2018-10-03T04:47:16.208Z,58.82
2018-10-03T04:49:45.030Z,58.09
2018-10-03T04:52:13.855Z,57.39
2018-10-03T04:54:43.060Z,56.40
2018-10-03T04:57:11.919Z,56.26
2018-10-03T04:59:42.772Z,55.72
2018-10-03T05:02:11.673Z,56.01
2018-10-03T05:04:40.496Z,55.60
2018-10-03T05:07:09.723Z,55.36
2018-10-03T05:09:38.748Z,55.06
2018-10-03T05:12:07.735Z,54.88
2018-10-03T05:14:36.595Z,54.24
2018-10-03T05:17:05.335Z,53.94
2018-10-03T05:19:34.108Z,53.81
2018-10-03T05:22:02.927Z,53.79
2018-10-03T05:24:31.763Z,53.45
2018-10-03T05:27:00.513Z,53.04
2018-10-03T05:29:30.040Z,53.33
2018-10-03T05:31:58.930Z,53.01
2018-10-03T05:34:27.743Z,53.34
2018-10-03T05:36:56.639Z,52.73
2018-10-03T05:39:25.478Z,52.77
2018-10-03T05:41:54.351Z,52.72
2018-10-03T05:44:23.162Z,52.50
2018-10-03T05:46:51.954Z,52.61
2018-10-03T05:49:20.811Z,52.70
2018-10-03T05:51:49.615Z,53.25
2018-10-03T05:54:18.428Z,53.01
2018-10-03T05:56:47.255Z,53.28
2018-10-03T05:59:16.059Z,53.12
2018-10-03T06:01:44.959Z,52.94
2018-10-03T06:04:13.829Z,53.25
2018-10-03T06:06:42.664Z,53.37
2018-10-03T06:09:13.087Z,53.59
2018-10-03T06:11:43.058Z,53.09
2018-10-03T06:14:12.417Z,52.97
2018-10-03T06:16:41.411Z,53.72
2018-10-03T06:19:10.298Z,54.11
2018-10-03T06:21:39.155Z,54.05
2018-10-03T06:24:08.045Z,53.97
2018-10-03T06:26:36.844Z,54.11
2018-10-03T06:29:05.840Z,53.98
2018-10-03T06:31:34.796Z,54.27
2018-10-03T06:34:03.748Z,54.14
2018-10-03T06:36:33.235Z,53.94
2018-10-03T06:39:02.249Z,54.12
2018-10-03T06:41:31.172Z,54.13
2018-10-03T06:44:00.064Z,54.06
2018-10-03T06:46:28.890Z,53.74
2018-10-03T06:48:57.881Z,53.66
2018-10-03T06:51:26.803Z,53.24
2018-10-03T06:53:55.652Z,53.61
2018-10-03T06:56:24.765Z,53.30
2018-10-03T06:58:53.623Z,53.22
2018-10-03T07:01:22.602Z,53.11
2018-10-03T07:03:51.454Z,52.38
2018-10-03T07:06:20.737Z,52.75
2018-10-03T07:08:49.787Z,52.49
2018-10-03T07:11:18.624Z,53.35
2018-10-03T07:13:47.475Z,54.34
2018-10-03T07:16:16.517Z,55.30
2018-10-03T07:18:45.722Z,55.34
2018-10-03T07:21:14.822Z,54.61
2018-10-03T07:23:43.783Z,53.90
2018-10-03T07:26:12.746Z,52.17
2018-10-03T07:28:41.586Z,51.57
2018-10-03T07:31:10.827Z,51.60
2018-10-03T07:33:39.704Z,51.54
2018-10-03T07:36:08.709Z,51.42
2018-10-03T07:38:37.688Z,51.84
2018-10-03T07:41:06.702Z,52.62
2018-10-03T07:43:35.550Z,52.24
2018-10-03T07:46:04.456Z,52.00
2018-10-03T07:48:33.354Z,49.66
2018-10-03T07:51:03.471Z,47.46
2018-10-03T07:53:32.710Z,47.18
2018-10-03T07:56:02.792Z,46.83
2018-10-03T07:58:31.969Z,47.93
2018-10-03T08:01:00.841Z,48.14
2018-10-03T08:03:29.774Z,47.80
2018-10-03T08:05:59.043Z,47.49
2018-10-03T08:08:28.500Z,47.92
2018-10-03T08:10:59.382Z,48.47
2018-10-03T08:13:34.094Z,47.27
2018-10-03T08:16:03.121Z,47.12
2018-10-03T08:18:32.008Z,46.81
2018-10-03T08:21:01.177Z,47.57
2018-10-03T08:23:38.117Z,45.45
2018-10-03T08:26:16.076Z,45.22
2018-10-03T08:28:46.313Z,44.94
2018-10-03T08:31:15.204Z,44.97
2018-10-03T08:33:44.150Z,44.31
2018-10-03T08:36:12.995Z,45.29
2018-10-03T08:38:41.927Z,44.48
2018-10-03T08:41:10.686Z,44.69
2018-10-03T08:43:39.541Z,45.21
2018-10-03T08:46:08.474Z,45.75
2018-10-03T08:48:37.420Z,45.75
2018-10-03T08:51:06.379Z,46.42
2018-10-03T08:53:35.243Z,46.56
2018-10-03T08:56:04.162Z,46.83
2018-10-03T08:58:33.136Z,47.43
2018-10-03T09:01:01.994Z,48.20
2018-10-03T09:03:30.755Z,48.34
2018-10-03T09:05:59.528Z,47.94
2018-10-03T09:08:28.372Z,47.65
2018-10-03T09:10:57.263Z,48.38
2018-10-03T09:13:27.675Z,48.27
2018-10-03T09:16:02.302Z,47.44
2018-10-03T09:18:31.158Z,46.63
2018-10-03T09:21:00.038Z,45.51
2018-10-03T09:23:28.880Z,44.85
2018-10-03T09:25:57.850Z,44.65
2018-10-03T09:31:17.643Z,44.36
2018-10-03T09:33:46.595Z,44.51
2018-10-03T09:36:15.512Z,45.02
2018-10-03T09:38:44.243Z,45.09
2018-10-03T09:41:13.040Z,45.11
2018-10-03T09:43:42.255Z,45.33
2018-10-03T09:46:11.420Z,44.24
2018-10-03T09:48:40.271Z,43.91
2018-10-03T09:51:09.152Z,43.42
2018-10-03T09:53:37.941Z,44.89
2018-10-03T09:56:06.873Z,45.92
2018-10-03T09:58:35.624Z,46.44
2018-10-03T10:01:09.839Z,46.85
2018-10-03T10:03:38.576Z,47.14
2018-10-03T10:06:07.472Z,46.85
2018-10-03T10:08:36.638Z,46.62
2018-10-03T10:11:05.730Z,45.64
2018-10-03T10:13:34.607Z,46.52
2018-10-03T10:16:03.422Z,45.55
2018-10-03T10:18:32.279Z,46.01
2018-10-03T10:21:01.115Z,45.12
2018-10-03T10:23:29.990Z,44.44
2018-10-03T10:25:58.836Z,42.92
2018-10-03T10:28:27.804Z,44.17
2018-10-03T10:30:56.583Z,45.14
2018-10-03T10:33:26.208Z,45.07
2018-10-03T10:35:55.133Z,44.96
2018-10-03T10:38:24.022Z,45.67
2018-10-03T10:40:52.951Z,45.26
2018-10-03T10:43:21.878Z,45.49
2018-10-03T10:45:51.415Z,45.72
2018-10-03T10:48:20.606Z,45.39
2018-10-03T10:50:49.684Z,45.10
2018-10-03T10:53:18.623Z,44.82
2018-10-03T10:55:47.484Z,47.38
2018-10-03T10:58:16.482Z,48.27
2018-10-03T11:00:45.436Z,46.41
2018-10-03T11:03:14.552Z,46.14
2018-10-03T11:05:43.504Z,45.54
2018-10-03T11:08:12.390Z,44.34
2018-10-03T11:10:41.313Z,43.90
2018-10-03T11:13:10.482Z,42.85
2018-10-03T11:15:39.849Z,44.13
2018-10-03T11:18:08.864Z,49.19
2018-10-03T11:20:37.864Z,51.60
2018-10-03T11:23:06.748Z,55.04
2018-10-03T11:25:35.781Z,56.15
2018-10-03T11:28:04.631Z,55.40
2018-10-03T11:30:33.908Z,54.65
2018-10-03T11:33:02.805Z,54.60
2018-10-03T11:35:31.845Z,52.21
2018-10-03T11:38:01.388Z,51.72
2018-10-03T11:40:30.278Z,49.70
2018-10-03T11:42:59.268Z,48.50
2018-10-03T11:45:28.021Z,49.24
2018-10-03T11:47:56.957Z,49.46
2018-10-03T11:50:25.860Z,50.26
2018-10-03T11:52:54.744Z,48.80
2018-10-03T11:55:23.613Z,48.91
2018-10-03T11:57:52.459Z,47.87
2018-10-03T12:00:21.297Z,47.17
2018-10-03T12:02:50.421Z,47.15
2018-10-03T12:05:19.280Z,46.20
2018-10-03T12:07:48.204Z,45.89
2018-10-03T12:10:17.171Z,47.04
2018-10-03T12:12:46.228Z,47.44
2018-10-03T12:15:15.141Z,47.11
2018-10-03T12:17:44.087Z,46.54
2018-10-03T12:20:12.998Z,51.38
2018-10-03T12:22:41.862Z,53.24
2018-10-03T12:25:10.752Z,51.14
2018-10-03T12:27:39.669Z,50.01
2018-10-03T12:30:08.606Z,49.29
2018-10-03T12:32:37.680Z,49.54
2018-10-03T12:35:06.899Z,50.50
2018-10-03T12:37:35.793Z,53.08
2018-10-03T12:40:04.755Z,53.94
2018-10-03T12:42:34.223Z,54.18
2018-10-03T12:45:03.196Z,52.80
2018-10-03T12:47:32.028Z,50.48
2018-10-03T12:50:01.128Z,50.35
2018-10-03T12:52:30.015Z,49.06
2018-10-03T12:54:58.822Z,48.19
2018-10-03T12:57:28.457Z,48.74
2018-10-03T12:59:57.468Z,49.40
2018-10-03T13:02:26.573Z,47.64
2018-10-03T13:04:55.725Z,46.65
2018-10-03T13:07:24.538Z,46.00
2018-10-03T13:09:53.449Z,46.50
2018-10-03T13:12:22.267Z,46.36
2018-10-03T13:14:51.230Z,43.17
2018-10-03T13:17:20.265Z,43.31
2018-10-03T13:19:49.570Z,42.69
2018-10-03T13:22:18.324Z,43.00
2018-10-03T13:24:47.162Z,43.44
2018-10-03T13:27:16.042Z,43.28
2018-10-03T13:29:46.345Z,43.32
2018-10-03T13:32:15.916Z,43.19
2018-10-03T13:34:46.102Z,43.08
2018-10-03T13:37:15.557Z,43.07
2018-10-03T13:39:44.631Z,42.83
2018-10-03T13:42:14.660Z,43.81
2018-10-03T13:44:46.199Z,44.32
2018-10-03T13:47:15.122Z,44.89
2018-10-03T13:49:44.243Z,45.79
2018-10-03T13:52:13.579Z,44.81
2018-10-03T13:54:43.318Z,44.96
2018-10-03T13:57:14.161Z,45.29
2018-10-03T13:59:45.082Z,44.15
2018-10-03T14:02:14.943Z,43.61
2018-10-03T14:04:44.968Z,43.06
2018-10-03T14:07:14.805Z,42.68
2018-10-03T14:09:44.152Z,42.81
2018-10-03T14:12:13.271Z,43.11
2018-10-03T14:14:46.759Z,43.66
2018-10-03T14:17:15.929Z,43.22
2018-10-03T14:19:44.783Z,44.01
2018-10-03T14:22:13.720Z,43.90
2018-10-03T14:24:42.601Z,43.32
2018-10-03T14:27:11.444Z,43.06
2018-10-03T14:29:40.298Z,43.12
2018-10-03T14:32:09.144Z,43.15
2018-10-03T14:34:37.905Z,43.61
2018-10-03T14:37:12.695Z,43.99
2018-10-03T14:39:41.556Z,44.00
2018-10-03T14:42:10.487Z,44.57
2018-10-03T14:44:39.367Z,45.01
2018-10-03T14:47:08.290Z,45.25
2018-10-03T14:49:38.060Z,45.38
2018-10-03T14:52:07.260Z,45.79
2018-10-03T14:54:36.154Z,46.55
2018-10-03T14:57:05.209Z,45.57
2018-10-03T14:59:34.246Z,46.36
2018-10-03T15:02:03.335Z,46.44
2018-10-03T15:04:32.240Z,46.06
2018-10-03T15:07:01.164Z,46.12
2018-10-03T15:09:30.224Z,45.94
2018-10-03T15:11:59.164Z,45.58
2018-10-03T15:14:28.045Z,46.05
2018-10-03T15:16:57.139Z,45.83
2018-10-03T15:19:26.218Z,45.88
2018-10-03T15:21:55.335Z,46.34
2018-10-03T15:24:24.451Z,46.97
2018-10-03T15:26:53.456Z,47.15
2018-10-03T15:29:23.724Z,46.98
2018-10-03T15:31:52.986Z,46.39
2018-10-03T15:34:21.861Z,46.08
2018-10-03T15:36:50.706Z,46.60
2018-10-03T15:39:19.681Z,47.01
2018-10-03T15:41:48.462Z,46.52
2018-10-03T15:44:17.520Z,46.84
2018-10-03T15:46:46.463Z,46.83
2018-10-03T15:49:15.868Z,47.39
2018-10-03T15:51:44.713Z,47.03
2018-10-03T15:54:15.963Z,47.10
2018-10-03T15:56:44.875Z,47.20
2018-10-03T15:59:13.734Z,47.18
2018-10-03T16:01:43.117Z,48.34
2018-10-03T16:04:12.242Z,48.21
2018-10-03T16:06:41.079Z,48.28
2018-10-03T16:09:10.557Z,48.57
2018-10-03T16:11:39.882Z,49.00
2018-10-03T16:14:08.743Z,48.81
2018-10-03T16:16:37.608Z,49.24
2018-10-03T16:19:06.607Z,49.57
2018-10-03T16:21:36.041Z,49.53
2018-10-03T16:24:05.067Z,49.72
2018-10-03T16:26:34.369Z,49.79
2018-10-03T16:29:03.866Z,50.21
2018-10-03T16:31:32.862Z,49.99
2018-10-03T16:34:02.058Z,50.12
2018-10-03T16:36:30.926Z,50.36
2018-10-03T16:39:00.210Z,50.25
2018-10-03T16:41:29.963Z,50.12
2018-10-03T16:43:58.789Z,50.12
2018-10-03T16:46:28.417Z,50.09
2018-10-03T16:48:58.256Z,50.02
2018-10-03T16:51:27.065Z,49.95
2018-10-03T16:53:55.927Z,50.34
2018-10-03T16:56:24.947Z,50.27
2018-10-03T16:58:53.946Z,50.43
2018-10-03T17:01:23.594Z,50.18
2018-10-03T17:03:53.108Z,50.93
2018-10-03T17:06:22.349Z,50.46
2018-10-03T17:08:51.280Z,50.91
2018-10-03T17:11:20.392Z,50.98
2018-10-03T17:14:35.900Z,51.35
2018-10-03T17:17:05.198Z,51.43
2018-10-03T17:19:34.349Z,51.64
2018-10-03T17:22:03.842Z,51.97
2018-10-03T17:24:34.161Z,52.08
2018-10-03T17:27:02.964Z,52.49
2018-10-03T17:29:31.686Z,52.47
2018-10-03T17:32:03.260Z,52.63
2018-10-03T17:34:33.292Z,52.90
2018-10-03T17:37:02.787Z,52.93
2018-10-03T17:39:33.069Z,53.18
2018-10-03T17:42:04.560Z,53.35
2018-10-03T17:44:33.576Z,53.61
2018-10-03T17:47:04.483Z,53.81
2018-10-03T17:49:34.926Z,54.22
2018-10-03T17:52:04.068Z,54.19
2018-10-03T17:54:33.088Z,54.67
2018-10-03T17:57:03.672Z,54.23
2018-10-03T17:59:32.709Z,54.35
2018-10-03T18:02:05.220Z,54.83
2018-10-03T18:04:36.222Z,54.85
2018-10-03T18:07:06.271Z,55.07
2018-10-03T18:09:37.045Z,55.16
2018-10-03T18:12:15.848Z,54.87
2018-10-03T18:14:51.021Z,55.34
2018-10-03T18:17:20.907Z,55.25
2018-10-03T18:19:52.002Z,54.92
2018-10-03T18:22:26.147Z,54.84
2018-10-03T18:24:57.445Z,55.03
2018-10-03T18:30:45.381Z,54.08
2018-10-03T18:33:23.154Z,54.00
2018-10-03T18:35:53.458Z,53.81
2018-10-03T18:38:24.171Z,54.03
2018-10-03T18:40:57.158Z,53.65
2018-10-03T18:43:28.482Z,54.12
2018-10-03T18:46:02.345Z,54.08
2018-10-03T18:48:33.310Z,53.79
2018-10-03T18:51:03.691Z,54.44
2018-10-03T18:53:33.730Z,54.41
2018-10-03T18:56:03.324Z,54.88
2018-10-03T18:58:33.855Z,54.93
2018-10-03T19:01:06.566Z,55.38
2018-10-03T19:03:36.397Z,55.20
2018-10-03T19:06:07.396Z,55.44
2018-10-03T19:08:37.791Z,55.35
2018-10-03T19:11:07.510Z,55.48
2018-10-03T19:13:36.527Z,55.55
2018-10-03T19:16:05.658Z,55.58
2018-10-03T19:18:35.037Z,55.73
2018-10-03T19:21:04.803Z,55.49
2018-10-03T19:23:33.942Z,55.28
2018-10-03T19:26:03.117Z,55.23
2018-10-03T19:28:32.596Z,55.32
2018-10-03T19:31:01.516Z,55.14
2018-10-03T19:33:34.211Z,54.86
2018-10-03T19:36:04.527Z,55.15
2018-10-03T19:38:34.092Z,54.87
2018-10-03T19:41:03.462Z,54.75
2018-10-03T19:43:39.325Z,54.53
2018-10-03T19:46:09.121Z,54.77
2018-10-03T19:48:38.471Z,54.37
2018-10-03T19:51:07.966Z,54.89
2018-10-03T19:53:38.988Z,55.10
2018-10-03T19:56:09.049Z,55.06
2018-10-03T19:58:39.682Z,55.31
2018-10-03T20:01:08.611Z,55.22
2018-10-03T20:03:37.552Z,55.10
2018-10-03T20:06:07.411Z,55.40
2018-10-03T20:08:36.541Z,55.47
2018-10-03T20:11:05.509Z,55.86
2018-10-03T20:13:34.861Z,56.40
2018-10-03T20:16:04.002Z,56.56
2018-10-03T20:18:32.820Z,56.71
2018-10-03T20:21:02.157Z,56.64
2018-10-03T20:23:31.312Z,56.91
2018-10-03T20:26:00.189Z,57.01
2018-10-03T20:28:29.996Z,57.52
2018-10-03T20:31:02.448Z,57.46
2018-10-03T20:33:32.105Z,57.59
2018-10-03T20:36:02.725Z,57.71
2018-10-03T20:47:04.616Z,58.49
2018-10-03T20:49:33.573Z,58.50
2018-10-03T20:52:03.157Z,58.39
2018-10-03T20:54:33.980Z,58.88
2018-10-03T20:57:03.863Z,58.90
2018-10-03T20:59:33.706Z,58.68
2018-10-03T21:02:02.923Z,58.91
2018-10-03T21:04:32.975Z,59.05
2018-10-03T21:07:01.821Z,59.39
2018-10-03T21:09:31.405Z,59.37
2018-10-03T21:12:00.396Z,59.12
2018-10-03T21:14:29.270Z,59.33
2018-10-03T21:16:58.558Z,59.32
2018-10-03T21:19:28.297Z,59.28
2018-10-03T21:21:58.669Z,59.01
2018-10-03T21:24:27.996Z,58.77
2018-10-03T21:26:57.337Z,58.82
2018-10-03T21:29:26.182Z,58.62
2018-10-03T21:31:55.134Z,58.30
2018-10-03T21:34:24.041Z,58.51
2018-10-03T21:36:52.900Z,58.32
2018-10-03T21:39:23.504Z,58.19
2018-10-03T21:41:53.502Z,58.10
2018-10-03T21:44:23.602Z,58.11
2018-10-03T21:46:54.048Z,58.01
2018-10-03T21:49:24.918Z,58.39
2018-10-03T21:51:54.113Z,58.25
2018-10-03T21:54:23.591Z,58.16
2018-10-03T21:56:54.874Z,58.05
2018-10-03T21:59:23.812Z,58.39
2018-10-03T22:02:02.553Z,57.92
2018-10-03T22:04:31.520Z,57.76
2018-10-03T22:07:01.049Z,57.67
2018-10-03T22:09:34.122Z,58.01
2018-10-03T22:12:02.919Z,57.82
2018-10-03T22:14:32.242Z,57.65
2018-10-03T22:17:17.390Z,57.73
2018-10-03T22:19:46.792Z,57.92
2018-10-03T22:22:15.836Z,57.69
2018-10-03T22:24:44.728Z,57.57
2018-10-03T22:27:13.675Z,57.81
2018-10-03T22:29:44.688Z,57.70
2018-10-03T22:32:13.553Z,57.69
2018-10-03T22:34:42.590Z,57.69
2018-10-03T22:37:12.100Z,58.23
2018-10-03T22:39:41.696Z,57.89
2018-10-03T22:42:11.065Z,58.14
2018-10-03T22:44:40.008Z,58.25
2018-10-03T22:47:08.952Z,58.38
2018-10-03T22:49:37.747Z,58.45
2018-10-03T22:52:07.092Z,58.56
2018-10-03T22:54:35.900Z,58.46
2018-10-03T22:57:05.515Z,58.82
2018-10-03T22:59:34.332Z,58.71
2018-10-03T23:02:03.270Z,58.95
2018-10-03T23:04:32.040Z,59.34
2018-10-03T23:07:00.930Z,59.32
2018-10-03T23:09:30.755Z,59.30
2018-10-03T23:11:59.676Z,59.81
2018-10-03T23:14:28.583Z,59.95
2018-10-03T23:16:57.386Z,60.19
2018-10-03T23:19:26.233Z,60.03
2018-10-03T23:21:55.303Z,60.99
2018-10-03T23:24:24.119Z,60.81
2018-10-03T23:26:53.006Z,61.14
2018-10-03T23:29:22.962Z,61.37
2018-10-03T23:31:51.842Z,61.50
2018-10-03T23:34:20.684Z,61.57
2018-10-03T23:36:51.316Z,61.86
2018-10-03T23:39:20.122Z,61.81
2018-10-03T23:41:48.916Z,62.23
2018-10-03T23:44:17.678Z,62.47
2018-10-03T23:46:46.880Z,62.51
2018-10-03T23:49:15.656Z,62.35
2018-10-03T23:51:45.742Z,62.63
2018-10-03T23:54:14.660Z,63.05
2018-10-03T23:56:44.922Z,63.21
2018-10-03T23:59:13.978Z,62.88
